LEAO

Ciudad Real Airport

Ciudad Real, Spain
TAF LEAO 171400Z 1715/1724 VRB05KT CAVOK PROB40 TEMPO 1715/1720 FEW040TCU PROB30 TEMPO 1715/1720 VRB15G25KT TS SHRA SCT040CB
Issued Valid From Valid To
Aug-17 @ 14:00 UTC
(55 minutes ago)
Aug-17 @ 15:00 UTC
(in 5 minutes)
Aug-18 @ 00:00 UTC
(in 9 hours)
Aug-17 @ 15:00 to Aug-18 @ 00:00
TAF LEAO 171400Z 1715/1724 VRB05KT CAVOK
Wind Visibility Clouds Conditions
Variable at 5 knots 10,000+ meters
  • No significant clouds
Temporary  (Probability 40%) Aug-17 @ 15:00 to Aug-17 @ 20:00
PROB40 TEMPO 1715/1720 FEW040TCU
Clouds
  • Few at 4,000' AGL
Temporary  (Probability 30%) Aug-17 @ 15:00 to Aug-17 @ 20:00
PROB30 TEMPO 1715/1720 VRB15G25KT TS SHRA SCT040CB
Wind Clouds Conditions
Variable at 15 knots
 Gusting to 25 knots
  • Scattered at 4,000' AGL
  • Thunderstorm
  • Rain
TAF LEAO 171400Z 1715/1724 VRB05KT CAVOK PROB40 TEMPO 1715/1720 FEW040TCU PROB30 TEMPO 1715/1720 VRB15G25KT TS SHRA SCT040CB
Issued Aug-17 @ 14:00 UTC
(55 minutes ago)
Valid From Aug-17 @ 15:00 UTC
(in 5 minutes)
Valid To Aug-18 @ 00:00 UTC
(in 9 hours)
Aug-17 @ 15:00 - Aug-18 @ 00:00
Wind Visibility
Variable at 5 knots 10,000+ meters
Clouds
  • No significant clouds
Conditions
Probability 40% Temporary Aug-17 @ 15:00 - Aug-17 @ 20:00
Clouds
  • Few at 4,000' AGL
Probability 30% Temporary Aug-17 @ 15:00 - Aug-17 @ 20:00
Wind
Variable at 15 knots
 Gusting to 25 knots
Clouds
  • Scattered at 4,000' AGL
Conditions
  • Thunderstorm
  • Rain